• Join FlightAware (Why Join?)
  • Login
  • US Flag 
05:47PM EDT


 

Airport Tracker/Info


-or-


 

Live Flight TrackerFlight Track Log ✈ UAL1082 ✈ 02-Feb-2014 ✈ KPDX - KEWR

Flight Track Log - Related Links

Times and Time Zones

All times are in EST time to prevent confusion due to time zone crossing. See the UAL1082 flight status page for this flight to view local times or setup timezone preferences in your user account.

Time Position Orientation Groundspeed Altitude Reporting Facility
EST Latitude Longitude Course Direction KTS MPH feet Rate Location/Type
09:31AM 45.5806 -122.5633 90° East 171 197 700  Level Seattle Center
09:32AM 45.5714 -122.5053 103° East 185 213 2,700 2,520 Climbing Seattle Center
09:32AM 45.5669 -122.4856 108° East 208 239 3,300 2,640 Climbing Seattle Center
09:33AM 45.5572 -122.4106 100° East 246 283 5,400 3,060 Climbing Seattle Center
09:33AM 45.5656 -122.3719 73° East 285 328 6,700 3,600 Climbing Seattle Center
09:34AM 45.7333 -122.2144 90° East  Level FlightAware Approximate
09:34AM 45.5881 -122.3097 63° Northeast 279 321 9,000  Level Seattle Center
09:35AM 45.7334 -122.0198 90° East  Level FlightAware Approximate
09:35AM 45.6272 -122.1983 63° Northeast 313 360 10,900  Level Seattle Center
09:36AM 45.7333 -121.8252 90° East  Level FlightAware Approximate
09:36AM 45.6731 -122.0692 63° Northeast 362 417 14,300  Level Seattle Center
09:37AM 45.7197 -121.9350 63° Northeast 379 436 16,200 1,980 Climbing Seattle Center
09:38AM 45.7467 -121.7922 75° East 409 471 18,400 2,460 Climbing Seattle Center
09:39AM 45.7447 -121.6206 91° East 428 493 21,200 2,460 Climbing Seattle Center
09:40AM 45.7439 -121.4489 90° East 431 496 23,400 2,100 Climbing Seattle Center
09:41AM 45.7425 -121.2694 91° East 444 511 25,500 1,920 Climbing Seattle Center
09:42AM 45.7400 -121.0883 91° East 452 520 27,300 1,740 Climbing Seattle Center
09:43AM 45.7369 -120.9028 91° East 461 531 29,100 1,680 Climbing Seattle Center
09:44AM 45.7328 -120.7189 92° East 463 533 30,800 1,680 Climbing Seattle Center
09:45AM 45.7289 -120.5339 92° East 464 534 32,500 1,440 Climbing Seattle Center
09:46AM 45.7250 -120.3486 92° East 465 535 33,800 1,260 Climbing Seattle Center
09:47AM 45.7200 -120.1631 92° East 466 536 35,100 1,140 Climbing Seattle Center
09:48AM 45.7150 -119.9781 92° East 464 534 36,200 840 Climbing Seattle Center
09:49AM 45.7094 -119.7906 92° East 467 537 36,900 660 Climbing Seattle Center
09:50AM 45.7044 -119.6011 92° East 474 545 37,600 720 Climbing Seattle Center
09:51AM 45.6994 -119.4069 92° East 484 557 38,400 660 Climbing Seattle Center
09:52AM 45.6925 -119.2144 93° East 485 558 39,000 240 Climbing Seattle Center
09:53AM 45.6861 -119.0208 93° East 486 559 39,000  Level Seattle Center
09:54AM 45.6783 -118.8275 93° East 487 560 39,000  Level Seattle Center
09:55AM 45.6719 -118.6317 93° East 490 564 39,000  Level Seattle Center
09:56AM 45.6636 -118.4003 93° East 488 562 39,000  Level Seattle Center
09:57AM 45.6547 -118.2064 94° East 489 563 39,000  Level Seattle Center
09:58AM 45.6467 -118.0128 93° East 489 563 39,000  Level Seattle Center
09:59AM 45.6386 -117.8206 93° East 488 562 39,000  Level Seattle Center
10:00AM 45.6283 -117.6264 94° East 489 563 39,000  Level Seattle Center
10:01AM 45.6200 -117.4342 93° East 487 560 39,000  Level Seattle Center
10:02AM 45.6114 -117.2492 94° East 488 562 39,000  Level Seattle Center
10:03AM 45.6022 -117.0583 94° East 484 557 39,000  Level Seattle Center
10:04AM 45.5903 -116.8686 95° East 481 554 39,000  Level Seattle Center
10:05AM 45.5808 -116.6769 94° East 483 556 39,000  Level Seattle Center
10:06AM 45.5692 -116.4864 95° East 483 556 39,000  Level Seattle Center
10:07AM 45.5581 -116.2942 95° East 485 558 39,000  Level Seattle Center
10:08AM 45.5472 -116.1031 95° East 483 556 39,000  Level Seattle Center
10:09AM 45.5353 -115.9108 95° East 486 559 39,000  Level Seattle Center
10:10AM 45.5236 -115.7183 95° East 487 560 39,000  Level Seattle Center
10:11AM 45.5106 -115.5256 95° East 488 562 39,000  Level Seattle Center
10:12AM 45.4972 -115.3311 96° East 493 567 39,000  Level Seattle Center
10:13AM 45.4847 -115.1386 95° East 490 564 39,000  Level Seattle Center
10:14AM 45.4706 -114.9439 96° East 492 566 39,000  Level Seattle Center
10:15AM 45.4569 -114.7486 96° East 495 570 39,000  Level Seattle Center
10:16AM 45.4425 -114.5558 96° East 492 566 39,000  Level Seattle Center
10:17AM 45.4269 -114.3583 96° East 498 573 39,000  Level Seattle Center
10:18AM 45.4119 -114.1642 96° East 497 572 39,000 -60 Level Seattle Center
10:19AM 45.3964 -113.9758 97° East 495 570 38,900 -60 Descending Seattle Center
10:20AM 45.3794 -113.7456 96° East 491 565 38,900  Level Seattle Center
10:21AM 45.3600 -113.5036 96° East 493 567 39,000  Climbing Salt Lake Center
10:22AM 45.3444 -113.3133 97° East 495 570 39,000  Level Salt Lake Center
10:23AM 45.3272 -113.1283 97° East 494 568 39,000  Level Salt Lake Center
10:24AM 45.3111 -112.9428 97° East 494 568 39,000  Level Salt Lake Center
10:25AM 45.2919 -112.7267 97° East 493 567 39,000  Level Salt Lake Center
10:26AM 45.2756 -112.5414 97° East 495 570 39,000  Level Salt Lake Center
10:27AM 45.2586 -112.3544 97° East 497 572 39,000  Level Salt Lake Center
10:28AM 45.2381 -112.1389 98° East 495 570 39,000  Level Salt Lake Center
10:29AM 45.2178 -111.9436 98° East 495 570 39,000  Level Salt Lake Center
10:30AM 45.1992 -111.7461 98° East 498 573 39,000  Level Salt Lake Center
10:31AM 45.1794 -111.5486 98° East 498 573 39,000  Level Salt Lake Center
10:32AM 45.1583 -111.3492 98° East 503 579 39,000  Level Salt Lake Center
10:33AM 45.1381 -111.1503 98° East 503 579 39,000  Level Salt Lake Center
10:34AM 45.1172 -110.9525 98° East 502 578 39,000  Level Salt Lake Center
10:35AM 45.0972 -110.7678 99° East 498 573 39,000  Level Salt Lake Center
10:36AM 45.0772 -110.5819 99° East 498 573 39,000  Level Salt Lake Center
10:37AM 45.0511 -110.3672 100° East 496 571 39,000  Level Salt Lake Center
10:38AM 45.0300 -110.1814 99° East 499 574 39,000  Level Salt Lake Center
10:39AM 45.0092 -109.9956 99° East 499 574 39,000  Level Salt Lake Center
10:40AM 44.9878 -109.8083 99° East 501 577 39,000  Level Salt Lake Center
10:41AM 44.9647 -109.6150 100° East 501 577 39,000  Level Salt Lake Center
10:42AM 44.9372 -109.3811 99° East 505 581 39,000  Level Salt Lake Center
10:43AM 44.9122 -109.1867 100° East 505 581 39,000  Level Salt Lake Center
10:44AM 44.8881 -108.9897 100° East 511 588 39,000  Level Salt Lake Center
10:46AM 44.8647 -108.7936 99° East 510 587 39,000  Level Salt Lake Center
10:47AM 44.8419 -108.5981 99° East 507 583 39,000  Level Salt Lake Center
10:48AM 44.8156 -108.4019 101° East 510 587 39,000  Level Salt Lake Center
10:49AM 44.7897 -108.2064 100° East 512 589 39,000  Level Salt Lake Center
10:50AM 44.7625 -108.0142 101° East 511 588 39,000  Level Salt Lake Center
10:51AM 44.7269 -107.7931 103° East 505 581 39,000  Level Salt Lake Center
10:52AM 44.6956 -107.6042 103° East 503 579 39,000  Level Salt Lake Center
10:53AM 44.6647 -107.4136 103° East 504 580 39,000  Level Salt Lake Center
10:54AM 44.6336 -107.2211 103° East 508 585 39,000  Level Salt Lake Center
10:55AM 44.6014 -107.0300 103° East 507 583 39,000  Level Salt Lake Center
10:56AM 44.5689 -106.8367 103° East 511 588 39,000  Level Salt Lake Center
10:57AM 44.5369 -106.6408 103° East 515 593 39,000  Level Salt Lake Center
10:58AM 44.5039 -106.4475 103° East 514 592 39,000  Level Salt Lake Center
10:59AM 44.4689 -106.2536 104° East 515 593 39,000  Level Salt Lake Center
11:00AM 44.4325 -106.0500 104° East 513 590 39,000  Level Salt Lake Center
11:01AM 44.3961 -105.8361 103° East 509 586 39,000  Level Salt Lake Center
11:02AM 44.3506 -105.5925 105° East 507 583 39,000  Level Denver Center
11:03AM 44.3169 -105.4103 104° East 507 583 39,000  Level Denver Center
11:04AM 44.2775 -105.1972 104° East 506 582 39,000  Level Denver Center
11:05AM 44.2436 -105.0133 104° East 510 587 39,000  Level Denver Center
11:06AM 44.2083 -104.8308 105° East 509 586 39,000  Level Denver Center
11:07AM 44.1697 -104.6158 104° East 512 589 39,000  Level Denver Center
11:08AM 44.1331 -104.4336 106° East 511 588 39,000  Level Denver Center
11:09AM 44.0914 -104.2192 105° East 514 592 39,000  Level Denver Center
11:10AM 44.0611 -104.0658 105° East 515 593 39,000  Level Denver Center
11:11AM 44.0183 -103.8494 105° East 519 597 39,000  Level Denver Center
11:12AM 43.9739 -103.6328 106° East 522 601 39,000  Level Denver Center
11:13AM 43.9372 -103.4500 106° East 515 593 39,000  Level Denver Center
11:14AM 43.8867 -103.2433 109° East 508 585 39,000  Level Denver Center
11:15AM 43.8353 -103.0689 112° Southeast 508 585 39,000  Level Denver Center
11:16AM 43.7844 -102.8933 112° Southeast 511 588 39,000  Level Denver Center
11:17AM 43.7256 -102.6858 111° Southeast 515 593 39,000  Level Denver Center
11:18AM 43.6722 -102.5058 112° Southeast 521 600 39,000  Level Denver Center
11:20AM 43.6114 -102.3011 112° Southeast 519 597 39,000  Level Denver Center
11:21AM 43.5692 -102.1578 112° Southeast 511 588 39,000  Level Denver Center
11:22AM 43.5064 -101.9494 112° Southeast 513 590 39,000  Level Denver Center
11:23AM 43.4542 -101.7675 112° Southeast 515 593 39,000  Level Denver Center
11:24AM 43.3975 -101.5856 113° Southeast 521 600 39,000  Level Denver Center
11:25AM 43.3214 -101.3339 112° Southeast 514 592 39,000  Level Denver Center
11:26AM 43.2653 -101.1522 113° Southeast 519 597 39,000  Level Denver Center
11:27AM 43.2094 -100.9725 113° Southeast 517 595 39,000  Level Denver Center
11:28AM 43.1547 -100.7922 113° Southeast 516 594 39,000  Level Denver Center
11:29AM 43.0978 -100.6125 113° Southeast 518 596 39,000  Level Denver Center
11:30AM 43.0350 -100.4367 116° Southeast 521 600 39,000  Level Denver Center
11:31AM 42.9211 -100.2700 133° Southeast 505 581 39,000  Level Minneapolis Center
11:32AM 42.8283 -100.1253 131° Southeast 506 582 39,000  Level Denver Center
11:33AM 42.7353 -99.9828 132° Southeast 504 580 39,000  Level Denver Center
11:34AM 42.6450 -99.8397 131° Southeast 506 582 39,000  Level Denver Center
11:35AM 42.5544 -99.6939 130° Southeast 504 580 39,000  Level Denver Center
11:36AM 42.5047 -99.5106 110° East 523 602 39,000  Level Denver Center
11:37AM 42.4692 -99.2797 102° East 524 603 39,000  Level Minneapolis Center
11:38AM 42.4406 -99.0847 101° East 526 605 39,000  Level Minneapolis Center
11:39AM 42.4094 -98.8911 102° East 525 604 39,000  Level Minneapolis Center
11:40AM 42.3714 -98.6592 102° East 524 603 39,000  Level Minneapolis Center
11:41AM 42.3408 -98.4647 102° East 526 605 39,000  Level Minneapolis Center
11:42AM 42.3081 -98.2722 103° East 524 603 39,000  Level Minneapolis Center
11:44AM 42.2758 -98.0797 103° East 524 603 39,000  Level Minneapolis Center
11:45AM 42.2442 -97.8883 103° East 522 601 39,000  Level Minneapolis Center
11:46AM 42.2136 -97.7072 103° East 523 602 39,000  Level Minneapolis Center
11:47AM 42.1811 -97.5153 103° East 525 604 39,000  Level Minneapolis Center
11:48AM 42.1461 -97.3225 104° East 527 606 39,000  Level Minneapolis Center
11:49AM 42.1064 -97.0903 103° East 530 610 39,000  Level Minneapolis Center
11:50AM 42.0719 -96.8983 104° East 527 606 39,000  Level Minneapolis Center
11:51AM 42.0367 -96.7058 104° East 529 609 39,000  Level Minneapolis Center
11:52AM 42.0017 -96.5128 104° East 530 610 39,000  Level Minneapolis Center
11:53AM 41.9667 -96.3203 104° East 528 608 39,000  Level Minneapolis Center
11:54AM 41.9311 -96.1281 104° East 527 606 39,000  Level Minneapolis Center
11:55AM 41.8953 -95.9372 104° East 525 604 39,000  Level Minneapolis Center
11:56AM 41.8592 -95.7453 104° East 527 606 39,000  Level Minneapolis Center
11:57AM 41.8217 -95.5533 105° East 527 606 39,000  Level Minneapolis Center
11:58AM 41.7842 -95.3614 105° East 530 610 39,000  Level Minneapolis Center
11:59AM 41.7467 -95.1711 105° East 527 606 39,000  Level Minneapolis Center
12:00PM 41.7017 -94.9406 105° East 532 612 39,000  Level Minneapolis Center
12:01PM 41.6625 -94.7461 105° East 538 619 39,000  Level Minneapolis Center
12:02PM 41.6239 -94.5542 105° East 533 613 39,000  Level Minneapolis Center
12:03PM 41.6161 -94.3536 93° East 542 624 39,000  Level Minneapolis Center
12:04PM 41.6292 -94.1606 85° East 554 638 39,000  Level Minneapolis Center
12:05PM 41.6456 -93.9542 84° East 557 641 39,000  Level Minneapolis Center
12:06PM 41.6600 -93.7483 85° East 558 642 39,000  Level Minneapolis Center
12:07PM 41.6778 -93.4986 84° East 561 646 39,000  Level Minneapolis Center
12:08PM 41.6939 -93.2872 84° East 568 654 39,000  Level Minneapolis Center
12:09PM 41.7081 -93.0806 85° East 564 649 39,000  Level Minneapolis Center
12:10PM 41.7206 -92.8739 85° East 560 644 39,000  Level Minneapolis Center
12:11PM 41.7342 -92.6581 85° East 561 646 39,000  Level Minneapolis Center
12:12PM 41.7444 -92.4919 85° East 560 644 39,000  Level Chicago Center
12:13PM 41.7558 -92.2864 86° East 560 644 39,000  Level Chicago Center
12:14PM 41.7689 -92.0808 85° East 559 643 39,000  Level Chicago Center
12:15PM 41.7825 -91.8336 86° East 559 643 39,000  Level Chicago Center
12:16PM 41.7933 -91.6275 86° East 561 646 39,000  Level Chicago Center
12:17PM 41.8039 -91.4222 86° East 560 644 39,000  Level Chicago Center
12:18PM 41.8147 -91.2169 86° East 559 643 39,000  Level Chicago Center
12:19PM 41.8244 -91.0122 86° East 556 640 39,000  Level Chicago Center
12:20PM 41.8339 -90.8047 86° East 562 647 39,000  Level Chicago Center
12:21PM 41.8433 -90.5956 86° East 565 650 39,000  Level Chicago Center
12:22PM 41.8517 -90.3881 87° East 564 649 39,000  Level Chicago Center
12:23PM 41.8622 -90.1344 87° East 568 654 39,000  Level Chicago Center
12:24PM 41.8706 -89.9267 87° East 566 651 39,000  Level Chicago Center
12:25PM 41.8778 -89.7236 87° East 556 640 39,000  Level Chicago Center
12:26PM 41.8861 -89.5072 87° East 560 644 39,000  Level Chicago Center
12:27PM 41.8928 -89.2947 88° East 564 649 39,000  Level Chicago Center
12:28PM 41.8975 -89.0883 88° East 574 661 39,000  Level Chicago Center
12:29PM 41.9042 -88.8783 87° East 572 658 39,000  Level Chicago Center
12:30PM 41.9108 -88.6264 88° East 567 652 39,000  Level Chicago Center
12:31PM 41.9167 -88.4167 88° East 566 651 39,000  Level Chicago Center
12:32PM 41.9217 -88.2089 88° East 563 648 39,000  Level Chicago Center
12:33PM 41.9269 -87.9989 88° East 567 652 39,000  Level Chicago Center
12:34PM 41.9311 -87.7867 88° East 571 657 39,000  Level Chicago Center
12:36PM 41.9339 -87.5769 89° East 568 654 39,000  Level Chicago Center
12:37PM 41.9381 -87.3514 89° East 574 661 39,000  Level Chicago Center
12:38PM 41.9422 -87.1383 88° East 572 658 39,000  Level Chicago Center
12:39PM 41.9456 -86.9247 89° East 571 657 39,000  Level Chicago Center
12:40PM 41.9483 -86.7128 89° East 570 656 39,000  Level Chicago Center
12:41PM 41.9522 -86.4992 89° East 572 658 39,000  Level Chicago Center
12:42PM 41.9542 -86.2858 89° East 571 657 39,000  Level Chicago Center
12:43PM 41.9567 -86.0283 89° East 574 661 39,000  Level Chicago Center
12:44PM 41.9581 -85.8111 89° East 578 665 39,000  Level Chicago Center
12:45PM 41.9608 -85.5933 89° East 578 665 39,000  Level Chicago Center
12:46PM 41.9606 -85.3711 90° East 585 673 39,000  Level Chicago Center
12:47PM 41.9625 -85.1506 89° East 584 672 39,000  Level Chicago Center
12:48PM 41.9628 -84.9314 90° East 584 672 39,000  Level Chicago Center
12:49PM 41.9617 -84.7136 90° East 582 670 39,000  Level Chicago Center
12:50PM 41.9606 -84.4967 90° East 582 670 39,000  Level Chicago Center
12:51PM 41.9600 -84.2800 90° East 581 669 39,000  Level Cleveland Center
12:52PM 41.9578 -84.0697 91° East 583 671 39,000  Level Cleveland Center
12:53PM 41.9556 -83.8544 91° East 583 671 39,000  Level Cleveland Center
12:54PM 41.9531 -83.6400 91° East 584 672 39,000  Level Cleveland Center
12:55PM 41.9506 -83.3975 91° East 589 678 39,000  Level Cleveland Center
12:56PM 41.9472 -83.1650 91° East 588 677 39,000  Level Cleveland Center
12:57PM 41.9436 -82.9481 91° East 589 678 39,000  Level Cleveland Center
12:58PM 41.9392 -82.7308 92° East 587 676 39,000  Level Cleveland Center
12:59PM 41.9339 -82.5142 92° East 585 673 39,000  Level Cleveland Center
01:00PM 41.9294 -82.2986 92° East 581 669 39,000  Level Cleveland Center
01:01PM 41.9228 -82.0736 92° East 581 669 39,000  Level Cleveland Center
01:02PM 41.9178 -81.8517 92° East 585 673 39,000  Level Cleveland Center
01:03PM 41.8992 -81.6353 97° East 575 662 39,000  Level Cleveland Center
01:04PM 41.8797 -81.4203 97° East 573 659 39,000  Level Cleveland Center
01:05PM 41.8600 -81.2042 97° East 574 661 39,000  Level Cleveland Center
01:06PM 41.8406 -80.9911 97° East 570 656 39,000  Level Cleveland Center
01:07PM 41.8206 -80.7778 97° East 571 657 39,000  Level Cleveland Center
01:08PM 41.7958 -80.5289 98° East 571 657 39,000 -300 Level Cleveland Center
01:09PM 41.7750 -80.3161 97° East 572 658 38,400 -540 Descending Cleveland Center
01:10PM 41.7539 -80.1067 98° East 563 648 38,000 -240 Descending Cleveland Center
01:11PM 41.7328 -79.8975 98° East 561 646 38,000  Level Cleveland Center
01:12PM 41.7106 -79.6911 98° East 557 641 38,000  Level Cleveland Center
01:13PM 41.6886 -79.4981 99° East 555 639 38,000  Level Cleveland Center
01:14PM 41.6644 -79.2728 98° East 560 644 38,000  Level Cleveland Center
01:15PM 41.6389 -79.0464 99° East 558 642 38,000  Level Cleveland Center
01:16PM 41.6158 -78.8406 98° East 559 643 38,000  Level Cleveland Center
01:17PM 41.5922 -78.6378 99° East 555 639 38,000 -300 Level Cleveland Center
01:18PM 41.5678 -78.4286 99° East 565 650 37,500 -1,440 Descending Cleveland Center
01:19PM 41.5422 -78.2125 99° East 583 671 35,100 -2,640 Descending Cleveland Center
01:20PM 41.5147 -78.0000 100° East 582 670 32,100 -2,040 Descending Cleveland Center
01:21PM 41.4878 -77.7969 100° East 563 648 31,000 -540 Descending Cleveland Center
01:23PM 41.4597 -77.5931 100° East 560 644 31,000 -480 Level Cleveland Center
01:24PM 41.4294 -77.3947 101° East 552 635 30,100 -1,140 Descending Cleveland Center
01:25PM 41.3975 -77.1711 101° East 520 598 28,700 -1,320 Descending Cleveland Center
01:26PM 41.3697 -76.9942 102° East 501 577 27,500 -1,260 Descending Cleveland Center
01:27PM 41.3453 -76.8228 101° East 482 555 26,200 -1,680 Descending Cleveland Center
01:28PM 41.3075 -76.6603 107° East 467 537 24,100 -2,100 Descending Cleveland Center
01:29PM 41.2647 -76.5031 110° East 455 524 22,000 -2,040 Descending Cleveland Center
01:30PM 41.2239 -76.3500 109° East 446 513 20,000 -1,920 Descending Cleveland Center
01:31PM 41.1775 -76.1794 110° East 434 499 17,900 -1,680 Descending New York Center
01:32PM 41.1400 -76.0386 109° East 411 473 16,400 -1,560 Descending New York Center
01:33PM 41.0989 -75.8867 110° East 399 459 14,800 -1,500 Descending New York Center
01:34PM 41.0608 -75.7519 110° East 399 459 13,400 -1,500 Descending New York Center
01:35PM 41.0283 -75.6311 110° East 394 453 11,900 -1,380 Descending New York Center
01:36PM 40.9878 -75.4964 112° Southeast 375 432 10,700 -1,200 Descending New York Center
01:37PM 40.9553 -75.3731 109° East 359 413 9,600 -900 Descending New York Center
01:38PM 40.9244 -75.2558 109° East 354 407 9,000 -780 Descending New York Center
01:39PM 40.8911 -75.1436 111° Southeast 336 387 8,100 -960 Descending New York Center
01:40PM 40.8656 -75.0461 109° East 326 375 7,100 -720 Descending New York Center
01:41PM 40.8572 -74.9303 95° East 314 361 6,700 -600 Descending New York Center
01:42PM 40.8781 -74.8081 77° East 308 354 6,000 -360 Descending New York Center
01:43PM 40.9058 -74.7219 67° East 290 334 6,000  Level New York Center
01:44PM 40.9408 -74.6086 68° East 295 339 6,000 -300 Level New York Center
01:45PM 40.9483 -74.5100 84° East 295 339 5,500 -600 Descending New York Center
01:46PM 40.9417 -74.3917 94° East 290 334 4,900 -720 Descending New York Center
01:47PM 40.9333 -74.3000 97° East 296 341 4,300 -540 Descending New York TRACON
01:48PM 40.9167 -74.2167 105° East 285 328 4,000 -420 Descending New York TRACON
01:49PM 40.8833 -74.1333 118° Southeast 253 291 3,600 -540 Descending New York TRACON
01:50PM 40.8333 -74.0833 143° Southeast 226 260 3,000 -840 Descending New York TRACON
01:51PM 40.7833 -74.1000 194° South 182 209 2,000 -900 Descending New York TRACON
01:52PM 40.7500 -74.1333 217° Southwest 151 174 1,200 -900 Descending New York TRACON
01:53PM 40.7167 -74.1500 201° Southwest 145 167 300 -960 Descending New York TRACON